Time;durP1;ratioP1;P1;durP2;ratioP2;P2;SDS_P1;SDS_P2;PMS_P1;PMS_P2;Temp;Humidity;BMP_temperature;BMP_pressure;BME280_temperature;BME280_humidity;BME280_pressure;Samples;Min_cycle;Max_cycle;Signal;HPM_P1;HPM_P2
2023/03/12 00:01:12;;;;;;;9.87;6.33;;;1.70;99.90;;;;;;4891205;29;20234;-68
2023/03/12 00:03:41;;;;;;;7.07;5.73;;;1.80;99.90;;;;;;4880173;29;20308;-69
2023/03/12 00:06:10;;;;;;;10.13;7.27;;;1.80;99.90;;;;;;4893286;29;20227;-68
2023/03/12 00:08:41;;;;;;;6.97;5.87;;;1.90;99.90;;;;;;4897627;29;20206;-74
2023/03/12 00:11:11;;;;;;;7.23;6.43;;;1.80;99.90;;;;;;4897490;29;20296;-74
2023/03/12 00:13:40;;;;;;;11.77;7.13;;;1.80;99.90;;;;;;4897521;29;20267;-72
2023/03/12 00:16:11;;;;;;;8.70;6.23;;;1.80;99.90;;;;;;4897120;29;20204;-74
2023/03/12 00:18:41;;;;;;;8.23;6.20;;;1.80;99.90;;;;;;4897313;29;20214;-72
2023/03/12 00:21:10;;;;;;;6.97;5.53;;;1.70;99.90;;;;;;4896806;29;20203;-69
2023/03/12 00:23:40;;;;;;;6.37;5.70;;;1.70;99.90;;;;;;4897262;29;20203;-74
2023/03/12 00:26:12;;;;;;;7.50;5.80;;;1.70;99.90;;;;;;4890767;29;20330;-77
2023/03/12 00:28:41;;;;;;;8.80;6.03;;;1.70;99.90;;;;;;4887200;29;20222;-75
2023/03/12 00:31:17;;;;;;;6.77;5.20;;;1.70;99.90;;;;;;4897112;29;20213;-70
2023/03/12 00:33:48;;;;;;;9.10;5.20;;;1.70;99.90;;;;;;4880348;29;20612;-77
2023/03/12 00:36:17;;;;;;;7.07;5.30;;;1.80;99.90;;;;;;4896731;29;20200;-77
2023/03/12 00:38:47;;;;;;;6.67;4.80;;;1.80;99.90;;;;;;4876596;29;20650;-75
2023/03/12 00:41:18;;;;;;;7.80;4.73;;;1.80;99.90;;;;;;4892900;29;20298;-76
2023/03/12 00:43:47;;;;;;;8.83;5.13;;;1.90;99.90;;;;;;4897045;29;20691;-74
2023/03/12 00:46:16;;;;;;;10.60;5.70;;;1.80;99.90;;;;;;4895977;29;20226;-75
2023/03/12 00:48:45;;;;;;;6.63;5.27;;;1.80;99.90;;;;;;4871685;29;20215;-71
2023/03/12 00:51:14;;;;;;;4.73;2.40;;;1.80;99.90;;;;;;4877623;29;20201;-71
2023/03/12 00:53:43;;;;;;;2.20;2.00;;;1.70;99.90;;;;;;4878076;29;20231;-77
2023/03/12 00:56:13;;;;;;;2.40;1.80;;;1.60;99.90;;;;;;4878206;29;20282;-68
2023/03/12 00:58:42;;;;;;;2.90;2.23;;;1.60;99.90;;;;;;4878255;29;20733;-76
2023/03/12 01:01:11;;;;;;;4.90;2.20;;;1.70;99.90;;;;;;4876869;29;20231;-66
2023/03/12 01:03:40;;;;;;;5.50;2.50;;;1.70;99.90;;;;;;4878051;29;20318;-76
2023/03/12 01:06:09;;;;;;;4.27;2.30;;;1.70;99.90;;;;;;4877948;29;20235;-75
2023/03/12 01:08:38;;;;;;;3.83;2.23;;;1.60;99.90;;;;;;4878083;29;20228;-78
2023/03/12 01:11:07;;;;;;;2.30;2.03;;;1.60;99.90;;;;;;4877331;29;20292;-66
2023/03/12 01:13:37;;;;;;;3.93;2.40;;;1.70;99.90;;;;;;4878016;29;20204;-74
2023/03/12 01:16:07;;;;;;;5.10;2.50;;;1.70;99.90;;;;;;4876284;29;20243;-73
2023/03/12 01:18:36;;;;;;;2.23;2.03;;;1.70;99.90;;;;;;4877388;29;20211;-75
2023/03/12 01:21:05;;;;;;;4.03;2.30;;;1.70;99.90;;;;;;4875715;29;20304;-71
2023/03/12 01:23:34;;;;;;;3.20;1.80;;;1.60;99.90;;;;;;4877998;29;20227;-73
2023/03/12 01:26:05;;;;;;;4.27;1.80;;;1.60;99.90;;;;;;4877762;29;20200;-71
2023/03/12 01:28:33;;;;;;;2.17;2.07;;;1.50;99.90;;;;;;4876216;29;20216;-69
2023/03/12 01:31:08;;;;;;;2.50;2.10;;;1.50;99.90;;;;;;4877623;29;20208;-71
2023/03/12 01:33:37;;;;;;;2.43;2.17;;;1.60;99.90;;;;;;4876000;29;20210;-76
2023/03/12 01:36:15;;;;;;;3.73;2.30;;;1.60;99.90;;;;;;4877873;29;20204;-76
2023/03/12 01:38:44;;;;;;;2.80;2.43;;;1.70;99.90;;;;;;4877742;29;20213;-79
2023/03/12 01:41:13;;;;;;;2.50;2.10;;;1.70;99.90;;;;;;4875642;29;20218;-78
2023/03/12 01:43:42;;;;;;;5.27;2.47;;;1.60;99.90;;;;;;4876280;29;20259;-76
2023/03/12 01:46:30;;;;;;;3.50;2.50;;;1.60;99.90;;;;;;4876349;29;20235;-78
2023/03/12 01:49:04;;;;;;;2.50;2.30;;;1.60;99.90;;;;;;4860356;29;20203;-68
2023/03/12 01:51:38;;;;;;;6.50;2.57;;;1.70;99.90;;;;;;4876386;29;20235;-75
2023/03/12 01:54:11;;;;;;;3.13;2.20;;;1.60;99.90;;;;;;4877412;29;20211;-68
2023/03/12 01:56:41;;;;;;;4.23;2.30;;;1.50;99.90;;;;;;4876253;29;20211;-76
2023/03/12 01:59:14;;;;;;;3.67;2.30;;;1.50;99.90;;;;;;4860758;29;20200;-69
2023/03/12 02:01:45;;;;;;;5.23;2.30;;;1.50;99.90;;;;;;4875661;29;20216;-74
2023/03/12 02:04:16;;;;;;;5.00;2.20;;;1.50;99.90;;;;;;4875976;29;20225;-71
2023/03/12 02:06:51;;;;;;;3.93;1.90;;;1.40;99.90;;;;;;4875987;29;20228;-77
2023/03/12 02:09:21;;;;;;;3.77;2.27;;;1.30;99.90;;;;;;4876205;29;20207;-70
2023/03/12 02:11:51;;;;;;;3.60;1.93;;;1.40;99.90;;;;;;4876048;29;20731;-73
2023/03/12 02:14:20;;;;;;;4.47;2.33;;;1.40;99.90;;;;;;4876063;29;20204;-71
2023/03/12 02:16:52;;;;;;;4.20;2.50;;;1.50;99.90;;;;;;4876397;29;20254;-77
2023/03/12 02:19:27;;;;;;;4.67;2.67;;;1.50;99.90;;;;;;4877252;29;20214;-71
2023/03/12 02:21:56;;;;;;;6.90;2.93;;;1.40;99.90;;;;;;4878141;29;20203;-77
2023/03/12 02:24:32;;;;;;;6.60;3.17;;;1.40;99.90;;;;;;4879643;29;20581;-74
2023/03/12 02:27:04;;;;;;;6.63;3.10;;;1.30;99.90;;;;;;4879479;29;20287;-76
2023/03/12 02:29:34;;;;;;;4.50;3.23;;;1.40;99.90;;;;;;4870915;29;20211;-73
2023/03/12 02:32:05;;;;;;;7.87;2.87;;;1.30;99.90;;;;;;4879844;29;20639;-73
2023/03/12 02:34:34;;;;;;;5.43;2.73;;;1.30;99.90;;;;;;4883519;29;20215;-67
2023/03/12 02:37:03;;;;;;;4.57;2.97;;;1.30;99.90;;;;;;4899691;29;20689;-74
2023/03/12 02:39:32;;;;;;;3.43;2.03;;;1.30;99.90;;;;;;4899683;29;20733;-69
2023/03/12 02:42:02;;;;;;;9.73;2.50;;;1.30;99.90;;;;;;4882819;29;20651;-76
2023/03/12 02:44:35;;;;;;;5.57;1.80;;;1.20;99.90;;;;;;4882668;29;20242;-70
2023/03/12 02:47:04;;;;;;;4.13;2.17;;;1.30;99.90;;;;;;4882499;29;20649;-77
2023/03/12 02:49:35;;;;;;;5.43;2.20;;;1.20;99.90;;;;;;4898994;29;20296;-71
2023/03/12 02:52:04;;;;;;;5.03;2.63;;;1.20;99.90;;;;;;4881171;29;20212;-76
2023/03/12 02:54:33;;;;;;;5.20;2.50;;;1.10;99.90;;;;;;4899435;29;20282;-76
2023/03/12 02:57:03;;;;;;;3.67;2.50;;;1.20;99.90;;;;;;4899130;29;20202;-71
2023/03/12 02:59:33;;;;;;;2.27;1.97;;;1.20;99.90;;;;;;4882654;29;20215;-75
2023/03/12 03:02:05;;;;;;;4.83;2.47;;;1.20;99.90;;;;;;4882242;29;20204;-74
2023/03/12 03:04:34;;;;;;;4.23;1.90;;;1.20;99.90;;;;;;4882377;29;20215;-77
2023/03/12 03:07:03;;;;;;;8.23;2.23;;;1.10;99.90;;;;;;4882424;29;20207;-74
2023/03/12 03:09:32;;;;;;;5.27;2.20;;;1.10;99.90;;;;;;4882183;29;20574;-70
2023/03/12 03:12:02;;;;;;;5.17;2.43;;;1.10;99.90;;;;;;4882232;29;20202;-76
2023/03/12 03:14:33;;;;;;;5.90;2.07;;;1.10;99.90;;;;;;4882320;29;20210;-75
2023/03/12 03:17:02;;;;;;;6.87;2.57;;;1.10;99.90;;;;;;4879793;29;20246;-67
2023/03/12 03:19:30;;;;;;;5.10;2.23;;;1.10;99.90;;;;;;4870653;29;20582;-75
2023/03/12 03:21:59;;;;;;;2.67;2.00;;;1.10;99.90;;;;;;4881606;29;20305;-77
2023/03/12 03:24:28;;;;;;;1.97;1.70;;;1.10;99.90;;;;;;4881980;29;20262;-70
2023/03/12 03:26:56;;;;;;;5.20;2.03;;;1.10;99.90;;;;;;4881363;29;20203;-71
2023/03/12 03:29:26;;;;;;;7.03;2.30;;;1.00;99.90;;;;;;4881768;29;20226;-69
2023/03/12 03:31:55;;;;;;;2.97;2.13;;;1.10;99.90;;;;;;4898537;29;20203;-69
2023/03/12 03:34:24;;;;;;;5.77;2.20;;;1.20;99.90;;;;;;4897876;29;20226;-76
2023/03/12 03:36:53;;;;;;;13.03;2.50;;;1.30;99.90;;;;;;4881728;29;20301;-75
2023/03/12 03:39:24;;;;;;;4.17;2.40;;;1.30;99.90;;;;;;4881739;29;20219;-71
2023/03/12 03:41:53;;;;;;;4.43;2.20;;;1.30;99.90;;;;;;4881735;29;20238;-70
2023/03/12 03:44:26;;;;;;;3.90;1.90;;;1.40;99.90;;;;;;4881779;29;20209;-78
2023/03/12 03:46:55;;;;;;;8.67;2.80;;;1.40;99.90;;;;;;4868470;29;20218;-68
2023/03/12 03:49:24;;;;;;;3.80;2.30;;;1.40;99.90;;;;;;4862876;29;20262;-77
2023/03/12 03:51:52;;;;;;;6.47;2.60;;;1.30;99.90;;;;;;4879837;29;20212;-76
2023/03/12 03:54:30;;;;;;;6.83;2.60;;;1.30;99.90;;;;;;4863154;29;20624;-71
2023/03/12 03:57:01;;;;;;;6.77;2.77;;;1.30;99.90;;;;;;4862997;29;20204;-71
2023/03/12 03:59:31;;;;;;;5.67;3.30;;;1.30;99.90;;;;;;4862893;29;20258;-67
2023/03/12 04:02:01;;;;;;;2.17;1.97;;;1.30;99.90;;;;;;4862684;29;20326;-71
2023/03/12 04:04:32;;;;;;;6.90;2.10;;;1.20;99.90;;;;;;4862738;29;20216;-76
2023/03/12 04:07:00;;;;;;;7.60;2.17;;;1.20;99.90;;;;;;4862755;29;20208;-68
2023/03/12 04:09:29;;;;;;;4.00;2.33;;;1.10;99.90;;;;;;4862560;29;20302;-79
2023/03/12 04:11:58;;;;;;;4.47;2.37;;;1.20;99.90;;;;;;4862702;29;20210;-75
2023/03/12 04:14:26;;;;;;;4.07;2.63;;;1.10;99.90;;;;;;4879321;29;20206;-74
2023/03/12 04:16:56;;;;;;;6.53;2.20;;;1.20;99.90;;;;;;4858852;29;20340;-74
2023/03/12 04:19:25;;;;;;;4.03;2.40;;;1.10;99.90;;;;;;4859300;29;20236;-77
2023/03/12 04:21:54;;;;;;;8.00;3.87;;;1.10;99.90;;;;;;4859337;29;20239;-77
2023/03/12 04:24:23;;;;;;;7.97;2.83;;;1.20;99.90;;;;;;4859287;29;20212;-70
2023/03/12 04:26:52;;;;;;;7.47;2.67;;;1.10;99.90;;;;;;4860556;29;20659;-76
2023/03/12 04:29:20;;;;;;;4.27;2.00;;;1.10;99.90;;;;;;4858924;29;20228;-76
2023/03/12 04:31:49;;;;;;;3.07;2.20;;;1.10;99.90;;;;;;4862258;29;20209;-76
2023/03/12 04:34:19;;;;;;;4.03;2.20;;;1.00;99.90;;;;;;4860304;29;20207;-78
2023/03/12 04:36:50;;;;;;;3.20;1.93;;;1.00;99.90;;;;;;4857662;29;20789;-76
2023/03/12 04:39:20;;;;;;;7.37;2.70;;;1.10;99.90;;;;;;4843569;29;20759;-74
2023/03/12 04:41:51;;;;;;;5.30;2.43;;;1.30;99.90;;;;;;4858903;29;20216;-78
2023/03/12 04:44:20;;;;;;;5.47;2.40;;;1.30;99.90;;;;;;4858954;29;20211;-75
2023/03/12 04:46:49;;;;;;;1.77;1.67;;;1.40;99.90;;;;;;4843687;29;20221;-69
2023/03/12 04:49:22;;;;;;;2.90;1.70;;;1.40;99.90;;;;;;4842552;29;20277;-78
2023/03/12 04:51:51;;;;;;;2.10;1.47;;;1.30;99.90;;;;;;4860655;29;20216;-80
2023/03/12 04:54:21;;;;;;;2.63;1.37;;;1.30;99.90;;;;;;4862338;29;20306;-77
2023/03/12 04:56:51;;;;;;;2.90;1.67;;;1.20;99.90;;;;;;4842371;29;20577;-69
2023/03/12 04:59:21;;;;;;;1.70;1.60;;;1.10;99.90;;;;;;4857949;29;20215;-77
2023/03/12 05:01:51;;;;;;;1.70;1.60;;;1.10;99.90;;;;;;4857698;29;20208;-75
2023/03/12 05:04:26;;;;;;;1.70;1.60;;;1.10;99.90;;;;;;4843232;29;20208;-77
2023/03/12 05:06:56;;;;;;;2.27;1.77;;;1.20;99.90;;;;;;4858565;29;20387;-77
2023/03/12 05:09:24;;;;;;;2.67;1.93;;;1.30;99.90;;;;;;4858524;29;20315;-78
2023/03/12 05:11:53;;;;;;;4.17;2.30;;;1.40;99.90;;;;;;4858670;29;20215;-73
2023/03/12 05:14:24;;;;;;;1.67;1.57;;;1.40;99.90;;;;;;4843164;29;20212;-69
2023/03/12 05:16:53;;;;;;;2.23;2.03;;;1.40;99.90;;;;;;4857988;29;20240;-69
2023/03/12 05:19:22;;;;;;;5.93;2.40;;;1.40;99.90;;;;;;4858487;29;20646;-69
2023/03/12 05:21:52;;;;;;;2.40;2.20;;;1.50;99.90;;;;;;4859449;29;20201;-78
2023/03/12 05:24:21;;;;;;;2.80;2.23;;;1.50;99.90;;;;;;4858267;29;20205;-78
2023/03/12 05:26:50;;;;;;;3.20;2.00;;;1.40;99.90;;;;;;4857945;29;20291;-71
2023/03/12 05:29:23;;;;;;;4.00;2.17;;;1.40;99.90;;;;;;4858341;29;20597;-75
2023/03/12 05:31:53;;;;;;;3.63;1.97;;;1.30;99.90;;;;;;4842820;29;20307;-77
2023/03/12 05:34:22;;;;;;;3.60;2.60;;;1.20;99.90;;;;;;4858169;29;20212;-76
2023/03/12 05:36:52;;;;;;;6.23;2.63;;;1.10;99.90;;;;;;4859699;29;20200;-75
2023/03/12 05:39:24;;;;;;;4.27;2.43;;;1.20;99.90;;;;;;4858076;29;20208;-71
2023/03/12 05:41:55;;;;;;;3.73;2.57;;;1.30;99.90;;;;;;4858109;29;20231;-78
2023/03/12 05:44:25;;;;;;;5.27;2.03;;;1.30;98.50;;;;;;4858067;29;20220;-78
2023/03/12 05:46:55;;;;;;;2.87;2.23;;;1.30;98.20;;;;;;4858003;29;20228;-77
2023/03/12 05:49:27;;;;;;;2.47;2.13;;;1.30;98.30;;;;;;4858090;29;20318;-68
2023/03/12 05:51:58;;;;;;;3.33;2.00;;;1.30;96.30;;;;;;4842694;29;20220;-79
2023/03/12 05:54:28;;;;;;;4.50;2.73;;;1.40;91.30;;;;;;4857429;29;20208;-80
2023/03/12 05:56:57;;;;;;;4.30;2.27;;;1.50;90.70;;;;;;4860307;29;20200;-79
2023/03/12 05:59:27;;;;;;;3.77;2.03;;;1.60;91.90;;;;;;4861578;29;20219;-80
2023/03/12 06:01:57;;;;;;;5.83;2.43;;;1.60;96.30;;;;;;4846320;29;20217;-74
2023/03/12 06:04:26;;;;;;;3.77;2.17;;;1.50;97.20;;;;;;4861854;29;20227;-77
2023/03/12 06:06:54;;;;;;;2.13;1.83;;;1.40;99.90;;;;;;4861669;29;20625;-79
2023/03/12 06:09:25;;;;;;;2.53;1.87;;;0.90;99.90;;;;;;4861694;29;20224;-78
2023/03/12 06:11:54;;;;;;;2.50;2.20;;;0.60;99.90;;;;;;4861527;29;20208;-80
2023/03/12 06:14:23;;;;;;;3.67;2.00;;;0.50;99.90;;;;;;4862812;29;20683;-75
2023/03/12 06:16:51;;;;;;;1.70;1.60;;;0.30;99.90;;;;;;4861423;29;20242;-74
2023/03/12 06:19:20;;;;;;;2.13;1.93;;;0.10;99.90;;;;;;4862693;29;20208;-72
2023/03/12 06:21:50;;;;;;;4.40;2.10;;;0.20;99.90;;;;;;4861278;29;20244;-70
2023/03/12 06:24:20;;;;;;;2.40;2.20;;;0.30;99.90;;;;;;4845537;29;20232;-74
2023/03/12 06:26:52;;;;;;;5.53;2.37;;;0.40;99.90;;;;;;4861287;29;20208;-72
2023/03/12 06:29:21;;;;;;;3.80;2.40;;;0.50;99.90;;;;;;4862548;29;20312;-76
2023/03/12 06:31:51;;;;;;;3.90;2.93;;;0.70;99.90;;;;;;4862468;29;20220;-78
2023/03/12 06:34:21;;;;;;;2.77;2.33;;;0.80;99.90;;;;;;4862419;29;20200;-79
2023/03/12 06:36:50;;;;;;;4.37;2.70;;;1.00;99.90;;;;;;4862516;29;20197;-80
2023/03/12 06:39:18;;;;;;;4.00;2.70;;;1.20;99.90;;;;;;4862494;29;20196;-79
2023/03/12 06:41:47;;;;;;;4.60;3.13;;;1.30;99.90;;;;;;4861315;29;20216;-73
2023/03/12 06:44:17;;;;;;;4.87;3.13;;;1.30;99.90;;;;;;4862353;29;20283;-79
2023/03/12 06:46:46;;;;;;;9.47;3.47;;;1.40;99.90;;;;;;4862323;29;20295;-79
2023/03/12 06:49:15;;;;;;;5.63;3.07;;;1.50;99.90;;;;;;4860768;29;20247;-76
2023/03/12 06:51:44;;;;;;;3.37;2.83;;;1.70;98.10;;;;;;4862365;29;20207;-76
2023/03/12 06:54:12;;;;;;;2.60;2.40;;;1.90;99.90;;;;;;4862517;29;20236;-79
2023/03/12 06:56:41;;;;;;;3.73;2.50;;;2.40;96.50;;;;;;4862589;29;20284;-78
2023/03/12 06:59:10;;;;;;;3.97;2.40;;;2.60;95.30;;;;;;4862441;29;20544;-75
2023/03/12 07:01:40;;;;;;;5.70;2.20;;;2.40;91.60;;;;;;4861013;29;20227;-73
2023/03/12 07:04:09;;;;;;;4.13;2.53;;;2.10;96.40;;;;;;4862053;29;20742;-78
2023/03/12 07:06:37;;;;;;;3.77;2.07;;;2.00;98.20;;;;;;4862055;29;20215;-68
2023/03/12 07:09:06;;;;;;;3.17;2.07;;;1.70;99.90;;;;;;4860530;29;20290;-67
2023/03/12 07:11:35;;;;;;;4.30;2.20;;;1.50;99.90;;;;;;4861913;29;20235;-71
2023/03/12 07:14:04;;;;;;;5.67;2.83;;;1.10;99.90;;;;;;4861865;29;20198;-72
2023/03/12 07:16:33;;;;;;;3.10;2.40;;;1.00;99.90;;;;;;4865037;29;20251;-69
2023/03/12 07:19:03;;;;;;;3.07;2.30;;;0.80;99.90;;;;;;4863647;29;20228;-69
2023/03/12 07:21:32;;;;;;;5.37;2.60;;;0.70;99.90;;;;;;4880354;29;20212;-71
2023/03/12 07:24:05;;;;;;;7.60;3.83;;;0.80;99.90;;;;;;4880360;29;20191;-70
2023/03/12 07:26:35;;;;;;;10.20;4.60;;;0.90;99.90;;;;;;4880200;29;20210;-68
2023/03/12 07:29:04;;;;;;;5.17;3.47;;;1.10;99.90;;;;;;4880041;29;20680;-69
2023/03/12 07:31:33;;;;;;;4.57;2.93;;;1.20;99.90;;;;;;4880107;29;20287;-72
2023/03/12 07:34:04;;;;;;;7.13;4.03;;;1.40;99.90;;;;;;4880015;29;20279;-69
2023/03/12 07:36:33;;;;;;;9.57;4.40;;;1.50;99.90;;;;;;4879939;29;20224;-69
2023/03/12 07:39:03;;;;;;;32.33;15.87;;;1.60;99.90;;;;;;4879913;29;20617;-76
2023/03/12 07:41:32;;;;;;;5.83;4.13;;;1.60;99.90;;;;;;4879953;29;20256;-72
2023/03/12 07:44:00;;;;;;;14.60;4.37;;;1.70;99.90;;;;;;4879814;29;20215;-70
2023/03/12 07:46:29;;;;;;;5.47;3.30;;;1.80;99.90;;;;;;4879757;29;20196;-71
2023/03/12 07:48:58;;;;;;;5.50;2.87;;;1.70;99.90;;;;;;4879743;29;20220;-70
2023/03/12 07:51:28;;;;;;;7.37;2.70;;;1.80;99.90;;;;;;4879585;29;20262;-76
2023/03/12 07:53:56;;;;;;;5.50;2.60;;;2.40;99.40;;;;;;4879686;29;20228;-70
2023/03/12 07:56:25;;;;;;;5.30;3.53;;;3.40;93.30;;;;;;4879579;29;20200;-72
2023/03/12 07:58:54;;;;;;;7.93;3.30;;;4.20;79.70;;;;;;4879559;29;20208;-71
2023/03/12 08:01:24;;;;;;;4.27;2.40;;;4.00;73.50;;;;;;4879537;29;20235;-78
2023/03/12 08:03:52;;;;;;;8.67;3.10;;;3.70;72.60;;;;;;4879658;29;20202;-69
2023/03/12 08:06:21;;;;;;;14.13;4.63;;;3.60;71.20;;;;;;4879453;29;20193;-77
2023/03/12 08:08:52;;;;;;;9.07;3.40;;;3.60;70.00;;;;;;4879313;29;20202;-70
2023/03/12 08:11:20;;;;;;;2.67;2.10;;;3.50;68.30;;;;;;4879279;29;20741;-69
2023/03/12 08:13:49;;;;;;;5.73;2.13;;;2.90;81.50;;;;;;4879240;29;20200;-70
2023/03/12 08:16:18;;;;;;;2.17;1.90;;;2.30;77.10;;;;;;4879017;29;20194;-72
2023/03/12 08:18:47;;;;;;;5.73;2.10;;;2.20;80.00;;;;;;4879042;29;20200;-69
2023/03/12 08:21:15;;;;;;;3.40;2.20;;;2.20;81.60;;;;;;4878886;29;20206;-68
2023/03/12 08:23:44;;;;;;;7.20;2.70;;;3.00;79.70;;;;;;4879140;29;20192;-71
2023/03/12 08:26:15;;;;;;;5.63;3.20;;;3.90;75.00;;;;;;4862477;29;20589;-74
2023/03/12 08:28:43;;;;;;;4.70;2.63;;;4.40;67.60;;;;;;4878960;29;20206;-69
2023/03/12 08:31:12;;;;;;;4.43;3.40;;;4.70;63.00;;;;;;4879085;29;20238;-73
2023/03/12 08:33:42;;;;;;;8.77;2.93;;;5.00;61.20;;;;;;4879067;29;20285;-71
2023/03/12 08:36:11;;;;;;;11.77;3.90;;;5.00;58.60;;;;;;4878852;29;20202;-69
2023/03/12 08:38:40;;;;;;;6.87;3.50;;;5.00;57.60;;;;;;4878864;29;20343;-70
2023/03/12 08:41:09;;;;;;;4.60;2.90;;;5.60;57.70;;;;;;4878925;29;20201;-69
2023/03/12 08:43:39;;;;;;;3.90;2.93;;;5.50;56.50;;;;;;4861837;29;20232;-73
2023/03/12 08:46:08;;;;;;;3.17;2.17;;;5.10;55.00;;;;;;4879051;29;20588;-68
2023/03/12 08:48:40;;;;;;;3.83;2.27;;;4.40;53.80;;;;;;4861784;29;20593;-72
2023/03/12 08:51:09;;;;;;;4.13;3.00;;;3.80;54.20;;;;;;4878742;29;20250;-68
2023/03/12 08:53:38;;;;;;;3.00;2.37;;;3.60;55.70;;;;;;4878606;29;20304;-72
2023/03/12 08:56:07;;;;;;;4.47;3.07;;;3.60;55.60;;;;;;4861982;29;20201;-68
2023/03/12 08:58:36;;;;;;;6.33;3.53;;;3.90;55.30;;;;;;4878388;29;20201;-68
2023/03/12 09:01:09;;;;;;;11.33;5.77;;;4.10;54.90;;;;;;4878499;29;20205;-69
2023/03/12 09:03:39;;;;;;;5.83;3.23;;;3.90;54.10;;;;;;4861598;29;20209;-72
2023/03/12 09:06:12;;;;;;;10.47;3.60;;;3.80;53.80;;;;;;4878539;29;20230;-72
2023/03/12 09:08:41;;;;;;;3.23;2.77;;;3.90;54.60;;;;;;4878450;29;20208;-70
2023/03/12 09:11:10;;;;;;;5.27;2.70;;;4.00;53.60;;;;;;4878360;29;20294;-75
2023/03/12 09:13:39;;;;;;;2.90;2.07;;;3.90;52.50;;;;;;4878402;29;20667;-76
2023/03/12 09:16:29;;;;;;;4.30;2.70;;;3.60;52.40;;;;;;4878113;29;20242;-70
2023/03/12 09:18:58;;;;;;;6.50;3.20;;;3.60;53.70;;;;;;4878146;29;20680;-77
2023/03/12 09:21:27;;;;;;;4.33;2.27;;;3.60;53.50;;;;;;4878093;29;20202;-70
2023/03/12 09:23:56;;;;;;;4.40;2.87;;;3.80;53.50;;;;;;4877999;29;20213;-75
2023/03/12 09:26:25;;;;;;;4.93;2.67;;;4.00;53.80;;;;;;4861546;29;20581;-74
2023/03/12 09:28:53;;;;;;;10.13;2.63;;;4.10;53.80;;;;;;4878064;29;20569;-71
2023/03/12 09:31:22;;;;;;;4.40;2.80;;;4.40;54.10;;;;;;4877468;29;20722;-69
2023/03/12 09:33:53;;;;;;;3.70;3.23;;;4.60;53.60;;;;;;4877844;29;20195;-74
2023/03/12 09:36:21;;;;;;;3.27;2.43;;;4.70;52.60;;;;;;4877928;29;20234;-72
2023/03/12 09:38:50;;;;;;;3.90;1.90;;;4.60;51.70;;;;;;4877929;29;20204;-76
2023/03/12 09:41:21;;;;;;;2.37;2.17;;;4.30;51.60;;;;;;4877916;29;20686;-68
2023/03/12 09:43:54;;;;;;;2.57;2.37;;;4.30;51.80;;;;;;4877779;29;20702;-71
2023/03/12 09:46:28;;;;;;;2.70;2.50;;;5.00;51.50;;;;;;4877723;29;20286;-68
2023/03/12 09:49:03;;;;;;;11.00;3.53;;;5.30;50.90;;;;;;4877815;29;20193;-70
2023/03/12 09:51:36;;;;;;;5.73;3.23;;;5.70;50.20;;;;;;4877918;29;20227;-72
2023/03/12 09:54:08;;;;;;;3.90;2.53;;;6.00;49.60;;;;;;4861118;29;20203;-71
2023/03/12 09:56:37;;;;;;;3.87;3.50;;;5.90;49.00;;;;;;4877796;29;20204;-74
2023/03/12 09:59:11;;;;;;;4.63;3.70;;;6.90;47.80;;;;;;4877683;29;20202;-68
2023/03/12 10:01:47;;;;;;;5.17;3.17;;;8.50;45.20;;;;;;4877759;29;20595;-76
2023/03/12 10:04:32;;;;;;;5.80;3.10;;;9.70;42.90;;;;;;4861022;29;20337;-72
2023/03/12 10:07:12;;;;;;;3.33;2.63;;;9.00;41.00;;;;;;4877618;29;20196;-70
2023/03/12 10:10:12;;;;;;;5.67;3.03;;;10.10;40.10;;;;;;4860875;29;20216;-67
2023/03/12 10:12:54;;;;;;;2.40;1.40;;;11.20;38.50;;;;;;4804907;29;20849;-70
2023/03/12 10:15:36;;;;;;;3.60;3.30;;;10.50;37.00;;;;;;4820421;29;20210;-69
2023/03/12 10:18:18;;;;;;;3.50;2.10;;;10.50;38.60;;;;;;4819805;29;20238;-67
2023/03/12 10:21:10;;;;;;;4.17;2.83;;;9.10;38.60;;;;;;4820343;29;20580;-68
2023/03/12 10:23:50;;;;;;;6.80;3.20;;;8.40;40.10;;;;;;4820364;29;20258;-75
2023/03/12 10:26:24;;;;;;;7.57;3.20;;;9.90;39.90;;;;;;4820248;29;20214;-69
2023/03/12 10:28:57;;;;;;;3.40;3.10;;;10.90;37.90;;;;;;4820187;29;20211;-71
2023/03/12 10:31:29;;;;;;;7.90;4.50;;;10.20;38.10;;;;;;4820172;29;20782;-71
2023/03/12 10:34:00;;;;;;;2.37;1.90;;;8.60;38.10;;;;;;4820158;29;20301;-68
2023/03/12 10:36:36;;;;;;;3.30;3.00;;;9.00;39.10;;;;;;4820184;29;20624;-71
2023/03/12 10:39:10;;;;;;;3.30;2.93;;;8.70;39.90;;;;;;4804832;29;20726;-68
2023/03/12 10:41:39;;;;;;;2.93;2.17;;;9.50;39.10;;;;;;4820105;29;20213;-68
2023/03/12 10:44:09;;;;;;;3.50;2.80;;;8.80;39.00;;;;;;4822206;29;20212;-70
2023/03/12 10:47:06;;;;;;;2.03;1.90;;;8.40;40.50;;;;;;4823143;29;20270;-69
2023/03/12 10:49:36;;;;;;;2.90;2.50;;;7.20;41.70;;;;;;4772330;29;20221;-68
2023/03/12 10:52:16;;;;;;;6.63;3.40;;;6.60;43.90;;;;;;4789841;29;20237;-68
2023/03/12 10:54:46;;;;;;;6.93;3.83;;;5.90;45.80;;;;;;4805042;29;20217;-69
2023/03/12 10:57:16;;;;;;;5.83;4.30;;;5.60;46.30;;;;;;4805021;29;20216;-68
2023/03/12 10:59:46;;;;;;;4.67;4.27;;;6.50;46.80;;;;;;4805087;29;20225;-74
2023/03/12 11:02:36;;;;;;;3.10;2.80;;;8.70;43.50;;;;;;4804935;29;20213;-72
2023/03/12 11:05:20;;;;;;;4.73;2.30;;;10.30;39.90;;;;;;4789696;29;20561;-69
2023/03/12 11:07:51;;;;;;;3.30;2.80;;;11.60;36.40;;;;;;4804835;29;20701;-66
2023/03/12 11:10:25;;;;;;;5.47;3.07;;;11.30;34.80;;;;;;4804737;29;20216;-67
2023/03/12 11:13:01;;;;;;;3.67;2.47;;;11.00;35.40;;;;;;4804571;29;20295;-69
2023/03/12 11:15:38;;;;;;;3.43;2.43;;;9.40;34.50;;;;;;4804683;29;20206;-66
2023/03/12 11:18:30;;;;;;;5.13;2.80;;;8.50;35.70;;;;;;4804351;29;20714;-74
2023/03/12 11:21:17;;;;;;;5.33;2.10;;;9.40;37.10;;;;;;4789112;29;20234;-79
2023/03/12 11:24:06;;;;;;;4.10;2.63;;;9.30;35.70;;;;;;4804358;29;20231;-73
2023/03/12 11:26:39;;;;;;;6.77;2.97;;;8.90;37.10;;;;;;4827176;29;20211;-72
2023/03/12 11:29:17;;;;;;;3.30;2.30;;;10.80;35.70;;;;;;4880348;29;20225;-72
2023/03/12 11:31:55;;;;;;;3.47;2.17;;;11.90;33.70;;;;;;4879707;29;20246;-75
2023/03/12 11:34:29;;;;;;;4.13;1.97;;;13.60;32.10;;;;;;4863251;29;20298;-74
2023/03/12 11:37:06;;;;;;;7.80;3.00;;;12.10;32.40;;;;;;4879804;29;20261;-71
2023/03/12 11:39:48;;;;;;;8.23;4.13;;;13.10;31.60;;;;;;4879837;29;20210;-68
2023/03/12 11:42:29;;;;;;;4.10;3.07;;;11.30;31.70;;;;;;4879935;29;20206;-68
2023/03/12 11:45:08;;;;;;;6.97;3.43;;;10.80;33.30;;;;;;4879760;29;20209;-74
2023/03/12 11:47:59;;;;;;;4.73;3.40;;;11.10;34.90;;;;;;4879761;29;20555;-78
2023/03/12 11:50:39;;;;;;;2.73;2.20;;;11.70;34.00;;;;;;4879543;29;20219;-68
2023/03/12 11:53:23;;;;;;;5.13;3.23;;;12.40;33.10;;;;;;4879519;29;20258;-68
2023/03/12 11:56:03;;;;;;;4.67;2.70;;;14.60;32.00;;;;;;4878984;29;20569;-77
2023/03/12 11:58:57;;;;;;;4.03;2.77;;;14.30;30.30;;;;;;4879750;29;20207;-69
2023/03/12 12:01:38;;;;;;;6.17;3.27;;;12.80;30.20;;;;;;4879486;29;20683;-68
2023/03/12 12:04:33;;;;;;;5.77;3.10;;;13.20;32.70;;;;;;4879320;29;20229;-73
2023/03/12 12:07:08;;;;;;;2.83;2.57;;;12.70;31.90;;;;;;4879503;29;20265;-76
2023/03/12 12:09:44;;;;;;;3.83;3.03;;;12.00;29.80;;;;;;4879224;29;20212;-71
2023/03/12 12:12:26;;;;;;;3.60;2.10;;;13.10;29.60;;;;;;4879442;29;20238;-75
2023/03/12 12:15:11;;;;;;;7.37;2.70;;;12.80;29.40;;;;;;4879123;29;20679;-70
2023/03/12 12:17:51;;;;;;;6.07;2.90;;;12.10;30.10;;;;;;4878966;29;20230;-69
2023/03/12 12:20:27;;;;;;;4.47;3.13;;;10.90;32.50;;;;;;4862409;29;20203;-73
2023/03/12 12:23:10;;;;;;;3.50;2.10;;;11.00;34.10;;;;;;4879222;29;20197;-69
2023/03/12 12:25:52;;;;;;;4.40;2.27;;;9.80;34.40;;;;;;4878990;29;20260;-67
2023/03/12 12:28:39;;;;;;;3.33;2.30;;;10.50;36.30;;;;;;4878838;29;20204;-68
2023/03/12 12:31:23;;;;;;;4.03;2.67;;;12.90;34.10;;;;;;4878925;29;20202;-68
2023/03/12 12:34:11;;;;;;;4.17;2.50;;;15.60;30.50;;;;;;4878707;29;20235;-68
2023/03/12 12:36:42;;;;;;;5.17;2.50;;;18.00;28.40;;;;;;4878799;29;20205;-68
2023/03/12 12:39:17;;;;;;;4.03;2.70;;;19.70;27.60;;;;;;4878752;29;20207;-68
2023/03/12 12:41:51;;;;;;;3.80;2.20;;;18.80;26.50;;;;;;4878649;29;20285;-67
2023/03/12 12:44:25;;;;;;;6.67;3.00;;;14.50;28.90;;;;;;4878656;29;20281;-69
2023/03/12 12:47:00;;;;;;;4.93;3.03;;;13.00;31.80;;;;;;4861783;29;20309;-69
2023/03/12 12:49:36;;;;;;;11.53;6.73;;;11.00;34.70;;;;;;4878426;29;20200;-70
2023/03/12 12:52:08;;;;;;;5.23;3.23;;;10.10;37.50;;;;;;4878373;29;20265;-67
2023/03/12 12:54:47;;;;;;;4.53;2.80;;;9.10;39.10;;;;;;4861808;29;20627;-67
2023/03/12 12:57:20;;;;;;;2.97;2.67;;;8.40;41.20;;;;;;4878431;29;20275;-67
2023/03/12 13:00:06;;;;;;;5.53;2.47;;;8.10;41.80;;;;;;4878449;29;20192;-67
2023/03/12 13:02:39;;;;;;;4.03;2.93;;;9.60;41.80;;;;;;4878619;29;20610;-72
2023/03/12 13:05:19;;;;;;;5.27;2.97;;;12.10;39.20;;;;;;4878401;29;20207;-70
2023/03/12 13:07:48;;;;;;;5.17;2.83;;;15.30;33.50;;;;;;4877380;29;20205;-73
2023/03/12 13:10:40;;;;;;;4.20;1.90;;;13.30;32.40;;;;;;4878197;29;20359;-71
2023/03/12 13:13:19;;;;;;;4.50;2.50;;;11.90;33.80;;;;;;4878169;29;20699;-67
2023/03/12 13:15:49;;;;;;;4.67;2.33;;;11.30;35.00;;;;;;4861796;29;20212;-67
2023/03/12 13:18:23;;;;;;;9.93;3.90;;;11.30;36.30;;;;;;4877874;29;20241;-67
2023/03/12 13:21:20;;;;;;;8.83;5.30;;;10.60;36.20;;;;;;4878013;29;20204;-67